PABE/BET METAR and TAF weather

Enter ICAO airport designator
Station Type Date Time Source
PABE METAR 2019/11/18 08:53 UTC NOAA

PABE 180853Z 03005KT 10SM OVC013 M15/M17 A2973 RMK AO2 SLP072 T11501172 411221150 51013 $


Station Type Date Time Source
PABE Decoded METAR 2019/11/18 08:53 UTC NOAA

BETHEL AIRPORT, AK, United States (PABE) 60-47N 161-50W 46M
Nov 18, 2019 - 03:53 AM EST / 2019.11.18 0853 UTC
Wind: from the NNE (030 degrees) at 6 MPH (5 KT):0
Visibility: 10 mile(s):0
Sky conditions: overcast
Temperature: 5.0 F (-15.0 C)
Windchill: -5 F (-21 C):2
Dew Point: 1.0 F (-17.2 C)
Relative Humidity: 83%
Pressure (altimeter): 29.73 in. Hg (1006 hPa)
Pressure tendency: 0.04 inches (1.3 hPa) higher than three hours ago
ob: PABE 180853Z 03005KT 10SM OVC013 M15/M17 A2973 RMK AO2 SLP072 T11501172 411221150 51013
cycle: 9

Station Type Date Time Source
PABE TAF 2019/11/18 06:24 UTC NOAA

TAF PABE 180523Z 1806/1906 01007KT P6SM -SHSN OVC019
FM181200 03010KT P6SM SCT015 BKN250
FM182100 03017G23KT P6SM SCT250

Example: see airport list